الصفحة الرئيسية
METAR-TAF:

METAR-TAF

مطار :

مطار هنري كواندا الدولي

بوخارست, رومانيا

دائرة عرض: 44-33N, خط طول: 026-06E, ارتفاع: 95 متر

مراقبة الطقس الحالي

تاريخ ووقت الإصدار 33 دقيقة قبل الساعة 00:00UTC
ريح 1 عقدةمن اتجاهات متغيرة
درجة الحرارة 10°درجة مئوية
الرطوبة 71%
ضغط 1022 hPa
الرؤية 10 كم أو أكثر
الغيوم لا تقل 1500 م ولا وجود لمزنة ركامية السحاب الأسود

METAR: LROP 170000Z VRB01KT CAVOK 10/05 Q1022 NOSIG

زمن: 03:33 (00:33 UTC)

توقعات

تاريخ ووقت الإصدار 1ساعة و 33 دقيقة قبل الساعة 23:00UTC
التوقعات صالحة من17 الساعة 00 UTC إلى 17 الساعة 24 UTC
ريح 4 عقدةمن اتجاهات متغيرة
الرؤية 10 كم أو أكثر
الغيوم لا تقل 1500 م ولا وجود لمزنة ركامية السحاب الأسود
أصبح
من 17 الساعة 04 UTC إلى 17 الساعة 06 UTC
ريح 10 عقدة من الشرق/الشمال الشرقي
أصبح
من 17 الساعة 20 UTC إلى 17 الساعة 22 UTC
ريح 4 عقدةمن اتجاهات متغيرة

TAF: LROP 162300Z 1700/1724 VRB04KT CAVOK BECMG 1704/1706 06010KT BECMG 1720/1722 VRB04KT

أرصاد الطقس والتوقعات من أكثر من 4000 مطار (تقارير الطقس للمطار METAR والتنبؤ بالطقس بالمطارTAF).

المحطات المتاحة هي النقط الصفراء والحمراء على الخريطة.

حرك المؤشر فوق النقطة لمعرفة اسم المحطة.

ثم انقر لمعرفة أرصاد وتوقعات الطقس.

لتغيير الخارطة: اضغط على الأزرار الخضراء مع رمز الصليب الأسود للتكبير. على الزر الأخضر مع شرطة للتصغير، أو على الأسهم الخضراء للخرائط المجاورة.


METAR-TAF: